Time;durP1;ratioP1;P1;durP2;ratioP2;P2;SDS_P1;SDS_P2;PMS_P1;PMS_P2;Temp;Humidity;BMP_temperature;BMP_pressure;BME280_temperature;BME280_humidity;BME280_pressure;Samples;Min_cycle;Max_cycle;Signal;HPM_P1;HPM_P2
2022/03/21 00:00:44;;;;;;;;;;;;;;;;;;5050307;28;20196;-73
2022/03/21 00:03:10;;;;;;;;;;;;;;;;;;5056488;28;19913;-73
2022/03/21 00:05:36;;;;;;;;;;;;;;;;;;5048843;28;19944;-74
2022/03/21 00:08:02;;;;;;;;;;;;;;;;;;5049919;28;20239;-73
2022/03/21 00:10:28;;;;;;;;;;;;;;;;;;5054822;28;19912;-72
2022/03/21 00:12:54;;;;;;;;;;;;;;;;;;5048503;28;19970;-73
2022/03/21 00:15:20;;;;;;;;;;;;;;;;;;5048482;28;20156;-73
2022/03/21 00:17:45;;;;;;;;;;;;;;;;;;5048741;28;19955;-72
2022/03/21 00:20:12;;;;;;;;;;;;;;;;;;5061787;28;19916;-73
2022/03/21 00:22:40;;;;;;;;;;;;;;;;;;5051508;28;19964;-73
2022/03/21 00:25:06;;;;;;;;;;;;;;;;;;5049200;28;20015;-73
2022/03/21 00:27:32;;;;;;;;;;;;;;;;;;5049398;28;20059;-74
2022/03/21 00:29:59;;;;;;;;;;;;;;;;;;5031199;28;19912;-73
2022/03/21 00:32:25;;;;;;;;;;;;;;;;;;5031477;28;20387;-73
2022/03/21 00:34:50;;;;;;;;;;;;;;;;;;5047901;28;19981;-73
2022/03/21 00:37:16;;;;;;;;;;;;;;;;;;5052007;28;19985;-74
2022/03/21 00:39:42;;;;;;;;;;;;;;;;;;5048619;28;20337;-74
2022/03/21 00:42:10;;;;;;;;;;;;;;;;;;5056144;28;19919;-72
2022/03/21 00:44:38;;;;;;;;;;;;;;;;;;5058901;28;19919;-73
2022/03/21 00:47:04;;;;;;;;;;;;;;;;;;5050573;28;20379;-73
2022/03/21 00:49:30;;;;;;;;;;;;;;;;;;5031150;28;19920;-73
2022/03/21 00:51:55;;;;;;;;;;;;;;;;;;5054039;28;19976;-71
2022/03/21 00:54:21;;;;;;;;;;;;;;;;;;5057967;28;19920;-74
2022/03/21 00:56:46;;;;;;;;;;;;;;;;;;5049067;28;20393;-74
2022/03/21 00:59:12;;;;;;;;;;;;;;;;;;5048467;28;20443;-71
2022/03/21 01:01:37;;;;;;;;;;;;;;;;;;5036519;28;20414;-72
2022/03/21 01:04:03;;;;;;;;;;;;;;;;;;5053261;28;20375;-72
2022/03/21 01:06:29;;;;;;;;;;;;;;;;;;5048733;28;20442;-74
2022/03/21 01:08:54;;;;;;;;;;;;;;;;;;5049319;28;19920;-73
2022/03/21 01:11:22;;;;;;;;;;;;;;;;;;5058754;28;20228;-73
2022/03/21 01:13:48;;;;;;;;;;;;;;;;;;5048961;28;20025;-71
2022/03/21 01:16:14;;;;;;;;;;;;;;;;;;5047647;28;20163;-73
2022/03/21 01:18:39;;;;;;;;;;;;;;;;;;5054522;28;20291;-73
2022/03/21 01:21:05;;;;;;;;;;;;;;;;;;5054892;28;19913;-73
2022/03/21 01:23:30;;;;;;;;;;;;;;;;;;5050317;28;20380;-71
2022/03/21 01:25:56;;;;;;;;;;;;;;;;;;5056104;28;19966;-74
2022/03/21 01:28:21;;;;;;;;;;;;;;;;;;5050907;28;19924;-74
2022/03/21 01:30:46;;;;;;;;;;;;;;;;;;5048659;28;20268;-72
2022/03/21 01:33:12;;;;;;;;;;;;;;;;;;5055281;28;19912;-72
2022/03/21 01:35:37;;;;;;;;;;;;;;;;;;5057106;28;19919;-71
2022/03/21 01:38:03;;;;;;;;;;;;;;;;;;5048527;28;19916;-71
2022/03/21 01:40:29;;;;;;;;;;;;;;;;;;5031050;28;20279;-71
2022/03/21 01:42:54;;;;;;;;;;;;;;;;;;5056163;28;19916;-72
2022/03/21 01:45:20;;;;;;;;;;;;;;;;;;5053961;28;20334;-70
2022/03/21 01:47:46;;;;;;;;;;;;;;;;;;5049374;28;19916;-74
2022/03/21 01:50:13;;;;;;;;;;;;;;;;;;5052587;28;19923;-72
2022/03/21 01:52:40;;;;;;;;;;;;;;;;;;5064827;28;19912;-73
2022/03/21 01:57:50;;;;;;;;;;;;;;;;;;5054097;28;19921;-73
2022/03/21 02:00:16;;;;;;;;;;;;;;;;;;5038810;28;19916;-72
2022/03/21 02:02:45;;;;;;;;;;;;;;;;;;5057277;28;20231;-74
2022/03/21 02:05:11;;;;;;;;;;;;;;;;;;5052346;28;20349;-72
2022/03/21 02:07:36;;;;;;;;;;;;;;;;;;5051590;28;20353;-74
2022/03/21 02:10:05;;;;;;;;;;;;;;;;;;5061179;28;19920;-71
2022/03/21 02:12:31;;;;;;;;;;;;;;;;;;5063722;28;19939;-72
2022/03/21 02:14:57;;;;;;;;;;;;;;;;;;5063074;28;19914;-73
2022/03/21 02:17:24;;;;;;;;;;;;;;;;;;5059849;28;19913;-73
2022/03/21 02:19:50;;;;;;;;;;;;;;;;;;5051754;28;19926;-72
2022/03/21 02:22:24;;;;;;;;;;;;;;;;;;5051430;28;20405;-72
2022/03/21 02:25:16;;;;;;;;;;;;;;;;;;5056382;28;20173;-73
2022/03/21 02:27:41;;;;;;;;;;;;;;;;;;5052940;28;19912;-71
2022/03/21 02:30:07;;;;;;;;;;;;;;;;;;5057602;28;20306;-72
2022/03/21 02:32:34;;;;;;;;;;;;;;;;;;5050971;28;19995;-72
2022/03/21 02:35:00;;;;;;;;;;;;;;;;;;5050244;28;20299;-74
2022/03/21 02:37:26;;;;;;;;;;;;;;;;;;5057525;28;20006;-74
2022/03/21 02:39:52;;;;;;;;;;;;;;;;;;5056603;28;19917;-72
2022/03/21 02:42:18;;;;;;;;;;;;;;;;;;5051038;28;19919;-73
2022/03/21 02:44:43;;;;;;;;;;;;;;;;;;5050150;28;19913;-73
2022/03/21 02:47:09;;;;;;;;;;;;;;;;;;5041008;28;19919;-74
2022/03/21 02:49:35;;;;;;;;;;;;;;;;;;5052267;28;19999;-73
2022/03/21 02:52:04;;;;;;;;;;;;;;;;;;5050683;28;20004;-73
2022/03/21 02:54:30;;;;;;;;;;;;;;;;;;5051373;28;19912;-73
2022/03/21 02:56:55;;;;;;;;;;;;;;;;;;5050455;28;19951;-73
2022/03/21 02:59:21;;;;;;;;;;;;;;;;;;5050759;28;19948;-74
2022/03/21 03:01:46;;;;;;;;;;;;;;;;;;5056443;28;20334;-74
2022/03/21 03:04:12;;;;;;;;;;;;;;;;;;5057468;28;19912;-72
2022/03/21 03:06:40;;;;;;;;;;;;;;;;;;5049973;28;20321;-73
2022/03/21 03:09:07;;;;;;;;;;;;;;;;;;5050251;28;19920;-73
2022/03/21 03:11:35;;;;;;;;;;;;;;;;;;5053266;28;19912;-72
2022/03/21 03:14:01;;;;;;;;;;;;;;;;;;5054363;28;20283;-72
2022/03/21 03:16:26;;;;;;;;;;;;;;;;;;5049916;28;19917;-73
2022/03/21 03:18:51;;;;;;;;;;;;;;;;;;5050258;28;19924;-73
2022/03/21 03:21:19;;;;;;;;;;;;;;;;;;5051844;28;20074;-73
2022/03/21 03:23:46;;;;;;;;;;;;;;;;;;5052043;28;19960;-72
2022/03/21 03:26:11;;;;;;;;;;;;;;;;;;5056449;28;19923;-74
2022/03/21 03:28:38;;;;;;;;;;;;;;;;;;5049735;28;20092;-73
2022/03/21 03:31:04;;;;;;;;;;;;;;;;;;5058685;28;19922;-72
2022/03/21 03:33:30;;;;;;;;;;;;;;;;;;5053146;28;20295;-72
2022/03/21 03:35:56;;;;;;;;;;;;;;;;;;5049581;28;20375;-73
2022/03/21 03:38:21;;;;;;;;;;;;;;;;;;5051392;28;20469;-72
2022/03/21 03:40:47;;;;;;;;;;;;;;;;;;5056716;28;19944;-72
2022/03/21 03:43:15;;;;;;;;;;;;;;;;;;5055316;28;19999;-72
2022/03/21 03:45:41;;;;;;;;;;;;;;;;;;5049204;28;20026;-72
2022/03/21 03:48:07;;;;;;;;;;;;;;;;;;5056912;28;20338;-73
2022/03/21 03:50:32;;;;;;;;;;;;;;;;;;5051611;28;19970;-74
2022/03/21 03:52:57;;;;;;;;;;;;;;;;;;5053353;28;20003;-72
2022/03/21 03:55:23;;;;;;;;;;;;;;;;;;5052248;28;19912;-72
2022/03/21 03:57:49;;;;;;;;;;;;;;;;;;5052803;28;19912;-72
2022/03/21 04:00:16;;;;;;;;;;;;;;;;;;5049378;28;20375;-72
2022/03/21 04:05:26;;;;;;;;;;;;;;;;;;5053498;28;19920;-72
2022/03/21 04:07:52;;;;;;;;;;;;;;;;;;5048960;28;19916;-73
2022/03/21 04:10:17;;;;;;;;;;;;;;;;;;5048311;28;19916;-74
2022/03/21 04:12:47;;;;;;;;;;;;;;;;;;5056117;28;19931;-72
2022/03/21 04:15:13;;;;;;;;;;;;;;;;;;5048770;28;20086;-72
2022/03/21 04:17:38;;;;;;;;;;;;;;;;;;5049195;28;19999;-73
2022/03/21 04:20:04;;;;;;;;;;;;;;;;;;5056863;28;19916;-72
2022/03/21 04:22:30;;;;;;;;;;;;;;;;;;5053115;28;20415;-73
2022/03/21 04:24:56;;;;;;;;;;;;;;;;;;5053375;28;19932;-73
2022/03/21 04:27:22;;;;;;;;;;;;;;;;;;5051146;28;19917;-71
2022/03/21 04:29:47;;;;;;;;;;;;;;;;;;5060942;28;20014;-72
2022/03/21 04:32:13;;;;;;;;;;;;;;;;;;5050560;28;20015;-72
2022/03/21 04:34:38;;;;;;;;;;;;;;;;;;5049055;28;19912;-73
2022/03/21 04:37:04;;;;;;;;;;;;;;;;;;5049975;28;20454;-74
2022/03/21 04:39:29;;;;;;;;;;;;;;;;;;5055634;28;19928;-72
2022/03/21 04:41:55;;;;;;;;;;;;;;;;;;5050098;28;19920;-75
2022/03/21 04:44:20;;;;;;;;;;;;;;;;;;5048501;28;19912;-74
2022/03/21 04:46:46;;;;;;;;;;;;;;;;;;5051569;28;19916;-72
2022/03/21 04:49:11;;;;;;;;;;;;;;;;;;5058951;28;19938;-74
2022/03/21 04:51:37;;;;;;;;;;;;;;;;;;5048628;28;19948;-72
2022/03/21 04:54:02;;;;;;;;;;;;;;;;;;5058875;28;19924;-74
2022/03/21 04:56:28;;;;;;;;;;;;;;;;;;5054349;28;20277;-72
2022/03/21 04:58:53;;;;;;;;;;;;;;;;;;5060886;28;20051;-75
2022/03/21 05:01:19;;;;;;;;;;;;;;;;;;5060151;28;19913;-74
2022/03/21 05:03:44;;;;;;;;;;;;;;;;;;5053809;28;19951;-71
2022/03/21 05:06:10;;;;;;;;;;;;;;;;;;5059768;28;19922;-72
2022/03/21 05:08:35;;;;;;;;;;;;;;;;;;5056110;28;19912;-73
2022/03/21 05:11:01;;;;;;;;;;;;;;;;;;5055586;28;20301;-72
2022/03/21 05:13:27;;;;;;;;;;;;;;;;;;5049846;28;19913;-72
2022/03/21 05:15:53;;;;;;;;;;;;;;;;;;5056986;28;19912;-72
2022/03/21 05:18:18;;;;;;;;;;;;;;;;;;5054537;28;19935;-71
2022/03/21 05:20:44;;;;;;;;;;;;;;;;;;5060037;28;19920;-72
2022/03/21 05:31:22;;;;;;;;;;;;;;;;;;5055234;28;20375;-71
2022/03/21 05:36:32;;;;;;;;;;;;;;;;;;5051477;28;20470;-71
2022/03/21 05:38:58;;;;;;;;;;;;;;;;;;5062248;28;20307;-71
2022/03/21 05:41:23;;;;;;;;;;;;;;;;;;5062237;28;19912;-72
2022/03/21 05:43:49;;;;;;;;;;;;;;;;;;5054221;28;20413;-73
2022/03/21 05:46:15;;;;;;;;;;;;;;;;;;5055757;28;20013;-72
2022/03/21 05:51:32;;;;;;;;;;;;;;;;;;5065781;28;19923;-73
2022/03/21 05:53:58;;;;;;;;;;;;;;;;;;5055245;28;19920;-71
2022/03/21 05:56:27;;;;;;;;;;;;;;;;;;5063000;28;20313;-72
2022/03/21 05:58:53;;;;;;;;;;;;;;;;;;5051646;28;19921;-72
2022/03/21 06:01:22;;;;;;;;;;;;;;;;;;5055653;28;19919;-72
2022/03/21 06:03:49;;;;;;;;;;;;;;;;;;5037767;28;20659;-71
2022/03/21 06:06:15;;;;;;;;;;;;;;;;;;5051074;28;20260;-72
2022/03/21 06:08:41;;;;;;;;;;;;;;;;;;5050924;28;19916;-72
2022/03/21 06:11:08;;;;;;;;;;;;;;;;;;5063318;28;19927;-71
2022/03/21 06:13:35;;;;;;;;;;;;;;;;;;5051833;28;20185;-72
2022/03/21 06:16:03;;;;;;;;;;;;;;;;;;5051657;28;19913;-73
2022/03/21 06:18:28;;;;;;;;;;;;;;;;;;5051452;28;19913;-72
2022/03/21 06:20:54;;;;;;;;;;;;;;;;;;5060141;28;20187;-73
2022/03/21 06:23:19;;;;;;;;;;;;;;;;;;5058134;28;19912;-72
2022/03/21 06:25:45;;;;;;;;;;;;;;;;;;5057368;28;19917;-72
2022/03/21 06:28:10;;;;;;;;;;;;;;;;;;5061489;28;19919;-72
2022/03/21 06:30:37;;;;;;;;;;;;;;;;;;5055048;28;20184;-72
2022/03/21 06:33:03;;;;;;;;;;;;;;;;;;5050788;28;19992;-73
2022/03/21 06:35:28;;;;;;;;;;;;;;;;;;5052913;28;20015;-71
2022/03/21 06:37:54;;;;;;;;;;;;;;;;;;5068804;28;20187;-72
2022/03/21 06:40:20;;;;;;;;;;;;;;;;;;5062068;28;19970;-72
2022/03/21 06:42:45;;;;;;;;;;;;;;;;;;5060833;28;20435;-71
2022/03/21 06:45:11;;;;;;;;;;;;;;;;;;5032567;28;19986;-72
2022/03/21 06:47:37;;;;;;;;;;;;;;;;;;5051131;28;20542;-72
2022/03/21 06:50:03;;;;;;;;;;;;;;;;;;5053771;28;20341;-72
2022/03/21 06:52:29;;;;;;;;;;;;;;;;;;5059940;28;19912;-73
2022/03/21 06:54:54;;;;;;;;;;;;;;;;;;5051891;28;19970;-72
2022/03/21 06:57:21;;;;;;;;;;;;;;;;;;5052186;28;19994;-72
2022/03/21 06:59:47;;;;;;;;;;;;;;;;;;5059122;28;19916;-72
2022/03/21 07:02:14;;;;;;;;;;;;;;;;;;5054497;28;19917;-72
2022/03/21 07:04:40;;;;;;;;;;;;;;;;;;5050656;28;19940;-72
2022/03/21 07:07:05;;;;;;;;;;;;;;;;;;5050515;28;20384;-72
2022/03/21 07:09:30;;;;;;;;;;;;;;;;;;5059395;28;19912;-72
2022/03/21 07:11:56;;;;;;;;;;;;;;;;;;5054129;28;20367;-71
2022/03/21 07:14:22;;;;;;;;;;;;;;;;;;5050299;28;19957;-73
2022/03/21 07:16:48;;;;;;;;;;;;;;;;;;5049367;28;19967;-74
2022/03/21 07:19:13;;;;;;;;;;;;;;;;;;5057135;28;19923;-73
2022/03/21 07:21:39;;;;;;;;;;;;;;;;;;5050278;28;19912;-74
2022/03/21 07:24:05;;;;;;;;;;;;;;;;;;5058160;28;19912;-72
2022/03/21 07:26:31;;;;;;;;;;;;;;;;;;5033131;28;20441;-70
2022/03/21 07:28:57;;;;;;;;;;;;;;;;;;5059612;28;19912;-73
2022/03/21 07:31:23;;;;;;;;;;;;;;;;;;5054884;28;19966;-73
2022/03/21 07:33:48;;;;;;;;;;;;;;;;;;5049862;28;20283;-71
2022/03/21 07:36:14;;;;;;;;;;;;;;;;;;5050136;28;19912;-70
2022/03/21 07:38:39;;;;;;;;;;;;;;;;;;5057770;28;19919;-71
2022/03/21 07:41:07;;;;;;;;;;;;;;;;;;5051727;28;19924;-71
2022/03/21 07:43:36;;;;;;;;;;;;;;;;;;5049931;28;20363;-71
2022/03/21 07:48:46;;;;;;;;;;;;;;;;;;5052439;28;19920;-71
2022/03/21 07:51:11;;;;;;;;;;;;;;;;;;5061822;28;19912;-71
2022/03/21 07:53:38;;;;;;;;;;;;;;;;;;5052793;28;19920;-71
2022/03/21 07:56:04;;;;;;;;;;;;;;;;;;5055919;28;20292;-71
2022/03/21 07:58:31;;;;;;;;;;;;;;;;;;5053737;28;20251;-71
2022/03/21 08:00:59;;;;;;;;;;;;;;;;;;5057800;28;19912;-71
2022/03/21 08:03:25;;;;;;;;;;;;;;;;;;5051374;28;20504;-71
2022/03/21 08:05:52;;;;;;;;;;;;;;;;;;5033782;28;19920;-71
2022/03/21 08:08:17;;;;;;;;;;;;;;;;;;5057476;28;19913;-71
2022/03/21 08:10:43;;;;;;;;;;;;;;;;;;5051102;28;19996;-71
2022/03/21 08:13:08;;;;;;;;;;;;;;;;;;5031880;28;19923;-71
2022/03/21 08:15:36;;;;;;;;;;;;;;;;;;5054642;28;19917;-71
2022/03/21 08:18:03;;;;;;;;;;;;;;;;;;5050686;28;19923;-71
2022/03/21 08:20:33;;;;;;;;;;;;;;;;;;5049389;28;19923;-71
2022/03/21 08:23:06;;;;;;;;;;;;;;;;;;5054006;28;19912;-71
2022/03/21 08:25:32;;;;;;;;;;;;;;;;;;5053740;28;19955;-73
2022/03/21 08:27:58;;;;;;;;;;;;;;;;;;5049284;28;19962;-72
2022/03/21 08:30:24;;;;;;;;;;;;;;;;;;5049300;28;19939;-72
2022/03/21 08:32:49;;;;;;;;;;;;;;;;;;5059836;28;19956;-72
2022/03/21 08:35:16;;;;;;;;;;;;;;;;;;5050829;28;20348;-72
2022/03/21 08:37:42;;;;;;;;;;;;;;;;;;5049164;28;19948;-72
2022/03/21 08:40:08;;;;;;;;;;;;;;;;;;5052762;28;19958;-72
2022/03/21 08:42:33;;;;;;;;;;;;;;;;;;5060233;28;20379;-73
2022/03/21 08:44:59;;;;;;;;;;;;;;;;;;5056944;28;20376;-73
2022/03/21 08:47:24;;;;;;;;;;;;;;;;;;5050156;28;19938;-73
2022/03/21 08:49:50;;;;;;;;;;;;;;;;;;5050768;28;19921;-73
2022/03/21 08:52:15;;;;;;;;;;;;;;;;;;5065521;28;20307;-73
2022/03/21 08:54:41;;;;;;;;;;;;;;;;;;5051284;28;19912;-73
2022/03/21 08:57:07;;;;;;;;;;;;;;;;;;5051960;28;20394;-73
2022/03/21 08:59:32;;;;;;;;;;;;;;;;;;5060244;28;20025;-73
2022/03/21 09:01:58;;;;;;;;;;;;;;;;;;5048845;28;19964;-73
2022/03/21 09:04:23;;;;;;;;;;;;;;;;;;5062499;28;19912;-73
2022/03/21 09:06:49;;;;;;;;;;;;;;;;;;5055458;28;20286;-73
2022/03/21 09:09:18;;;;;;;;;;;;;;;;;;5063954;28;19923;-73
2022/03/21 09:11:44;;;;;;;;;;;;;;;;;;5063141;28;19912;-73
2022/03/21 09:14:09;;;;;;;;;;;;;;;;;;5061744;28;19928;-73
2022/03/21 09:16:38;;;;;;;;;;;;;;;;;;5060580;28;20282;-73
2022/03/21 09:19:03;;;;;;;;;;;;;;;;;;5061625;28;19916;-73
2022/03/21 09:21:29;;;;;;;;;;;;;;;;;;5064353;28;19927;-73
2022/03/21 09:23:54;;;;;;;;;;;;;;;;;;5058861;28;19973;-73
2022/03/21 09:26:21;;;;;;;;;;;;;;;;;;5055800;28;19962;-73
2022/03/21 09:28:48;;;;;;;;;;;;;;;;;;5063399;28;19912;-73
2022/03/21 09:31:14;;;;;;;;;;;;;;;;;;5053187;28;19920;-73
2022/03/21 09:33:40;;;;;;;;;;;;;;;;;;5053211;28;19952;-73
2022/03/21 09:36:05;;;;;;;;;;;;;;;;;;5055714;28;20006;-73
2022/03/21 09:38:31;;;;;;;;;;;;;;;;;;5050353;28;20004;-73
2022/03/21 09:40:57;;;;;;;;;;;;;;;;;;5049650;28;19921;-73
2022/03/21 09:43:26;;;;;;;;;;;;;;;;;;5055130;28;19999;-73
2022/03/21 09:45:55;;;;;;;;;;;;;;;;;;5047714;28;20395;-73
2022/03/21 09:48:22;;;;;;;;;;;;;;;;;;5051315;28;19913;-73
2022/03/21 09:50:52;;;;;;;;;;;;;;;;;;5055862;28;19983;-71
2022/03/21 09:53:18;;;;;;;;;;;;;;;;;;5049691;28;19913;-71
2022/03/21 09:55:44;;;;;;;;;;;;;;;;;;5048268;28;19913;-73
2022/03/21 09:58:10;;;;;;;;;;;;;;;;;;5049076;28;19919;-73
2022/03/21 10:00:40;;;;;;;;;;;;;;;;;;5048369;28;19924;-73
2022/03/21 10:03:05;;;;;;;;;;;;;;;;;;5048295;28;19916;-71
2022/03/21 10:05:32;;;;;;;;;;;;;;;;;;5051150;28;19920;-71
2022/03/21 10:08:10;;;;;;;;;;;;;;;;;;5049408;28;19919;-71
2022/03/21 10:10:36;;;;;;;;;;;;;;;;;;5052054;28;20015;-71
2022/03/21 10:13:02;;;;;;;;;;;;;;;;;;5053724;28;20007;-74
2022/03/21 10:15:28;;;;;;;;;;;;;;;;;;5059392;28;19978;-73
2022/03/21 10:18:23;;;;;;;;;;;;;;;;;;5053313;28;19913;-72
2022/03/21 10:20:49;;;;;;;;;;;;;;;;;;5025695;28;19916;-71
2022/03/21 10:23:16;;;;;;;;;;;;;;;;;;5025524;22;19936;-68
2022/03/21 10:25:42;;;;;;;;;;;;;;;;;;5058164;28;19979;-69
2022/03/21 10:28:07;;;;;;;;;;;;;;;;;;5033560;28;19912;-69
2022/03/21 10:30:40;;;;;;;;;;;;;;;;;;5050759;28;19913;-69
2022/03/21 10:33:06;;;;;;;;;;;;;;;;;;5062804;28;19912;-69
2022/03/21 10:35:31;;;;;;;;;;;;;;;;;;5050908;28;19913;-69
2022/03/21 10:37:58;;;;;;;;;;;;;;;;;;5050892;28;19920;-69
2022/03/21 10:40:44;;;;;;;;;;;;;;;;;;5037860;28;20584;-69
2022/03/21 10:43:11;;;;;;;;;;;;;;;;;;5054959;28;19919;-69
2022/03/21 10:45:43;;;;;;;;;;;;;;;;;;5050607;28;19959;-69
2022/03/21 10:48:10;;;;;;;;;;;;;;;;;;5051239;28;19966;-69
2022/03/21 10:50:43;;;;;;;;;;;;;;;;;;5061768;28;20393;-69
2022/03/21 10:53:12;;;;;;;;;;;;;;;;;;5054375;28;19912;-69
2022/03/21 10:55:39;;;;;;;;;;;;;;;;;;5051412;28;19923;-69
2022/03/21 10:58:05;;;;;;;;;;;;;;;;;;5053563;28;19924;-69
2022/03/21 11:00:31;;;;;;;;;;;;;;;;;;5046772;28;19923;-70
2022/03/21 11:02:57;;;;;;;;;;;;;;;;;;5051388;28;20293;-69
2022/03/21 11:05:24;;;;;;;;;;;;;;;;;;5032386;28;20007;-69
2022/03/21 11:07:49;;;;;;;;;;;;;;;;;;5050816;28;20390;-69
2022/03/21 11:10:16;;;;;;;;;;;;;;;;;;5059835;28;19916;-70
2022/03/21 11:12:42;;;;;;;;;;;;;;;;;;5050628;28;19916;-69
2022/03/21 11:15:09;;;;;;;;;;;;;;;;;;5032303;28;19923;-70
2022/03/21 11:17:35;;;;;;;;;;;;;;;;;;5054875;28;19955;-69
2022/03/21 11:20:01;;;;;;;;;;;;;;;;;;5020669;28;19923;-69
2022/03/21 11:22:27;;;;;;;;;;;;;;;;;;5050117;28;20321;-69
2022/03/21 11:24:53;;;;;;;;;;;;;;;;;;5056629;28;19986;-69
2022/03/21 11:27:37;;;;;;;;;;;;;;;;;;5055884;28;19999;-70
2022/03/21 11:30:12;;;;;;;;;;;;;;;;;;5050052;28;20011;-69
2022/03/21 11:32:57;;;;;;;;;;;;;;;;;;5050011;28;20164;-69
2022/03/21 11:35:28;;;;;;;;;;;;;;;;;;5050418;28;20476;-69
2022/03/21 11:37:55;;;;;;;;;;;;;;;;;;5050012;28;19912;-69
2022/03/21 11:40:29;;;;;;;;;;;;;;;;;;5050078;28;20393;-69
2022/03/21 11:43:18;;;;;;;;;;;;;;;;;;5056915;28;19923;-69
2022/03/21 11:45:55;;;;;;;;;;;;;;;;;;5043533;28;20292;-70
2022/03/21 11:48:23;;;;;;;;;;;;;;;;;;5054389;28;19913;-70
2022/03/21 11:50:49;;;;;;;;;;;;;;;;;;5054062;28;19919;-70
2022/03/21 11:53:16;;;;;;;;;;;;;;;;;;5054899;28;20394;-69
2022/03/21 11:55:41;;;;;;;;;;;;;;;;;;5053270;28;19920;-70
2022/03/21 11:58:22;;;;;;;;;;;;;;;;;;5055233;28;19913;-69
2022/03/21 12:01:04;;;;;;;;;;;;;;;;;;5053014;28;19916;-69
2022/03/21 12:03:30;;;;;;;;;;;;;;;;;;5062383;28;19982;-69
2022/03/21 12:05:55;;;;;;;;;;;;;;;;;;5060356;28;20390;-69
2022/03/21 12:08:34;;;;;;;;;;;;;;;;;;5045715;28;19912;-69
2022/03/21 12:11:00;;;;;;;;;;;;;;;;;;5021663;28;19944;-69
2022/03/21 12:13:37;;;;;;;;;;;;;;;;;;5049299;28;19966;-69
2022/03/21 12:16:16;;;;;;;;;;;;;;;;;;5055268;28;20398;-69
2022/03/21 12:18:58;;;;;;;;;;;;;;;;;;5050959;28;19920;-70
2022/03/21 12:21:24;;;;;;;;;;;;;;;;;;5049395;28;19916;-69
2022/03/21 12:24:08;;;;;;;;;;;;;;;;;;5050312;28;19923;-69
2022/03/21 12:26:34;;;;;;;;;;;;;;;;;;5048306;28;20298;-69
2022/03/21 12:31:44;;;;;;;;;;;;;;;;;;5047674;28;19916;-70
2022/03/21 12:34:28;;;;;;;;;;;;;;;;;;5046389;28;19913;-69
2022/03/21 12:36:54;;;;;;;;;;;;;;;;;;5050505;28;19981;-70
2022/03/21 12:39:20;;;;;;;;;;;;;;;;;;5045150;28;20020;-69
2022/03/21 12:41:46;;;;;;;;;;;;;;;;;;5047215;28;19944;-70
2022/03/21 12:44:12;;;;;;;;;;;;;;;;;;5046583;28;19912;-69
2022/03/21 12:46:38;;;;;;;;;;;;;;;;;;5051369;28;20471;-70
2022/03/21 12:49:04;;;;;;;;;;;;;;;;;;5047283;28;19991;-69
2022/03/21 12:51:35;;;;;;;;;;;;;;;;;;5046794;28;19973;-70
2022/03/21 12:54:02;;;;;;;;;;;;;;;;;;5051857;28;20286;-69
2022/03/21 12:56:28;;;;;;;;;;;;;;;;;;5053444;28;19916;-69
2022/03/21 12:58:58;;;;;;;;;;;;;;;;;;5048905;28;19923;-70
2022/03/21 13:01:24;;;;;;;;;;;;;;;;;;5046830;28;19921;-69
2022/03/21 13:03:55;;;;;;;;;;;;;;;;;;5048652;28;19916;-70
2022/03/21 13:11:52;;;;;;;;;;;;;;;;;;5048156;28;20011;-70
2022/03/21 13:14:19;;;;;;;;;;;;;;;;;;5061957;28;19920;-69
2022/03/21 13:17:03;;;;;;;;;;;;;;;;;;5046000;28;19948;-69
2022/03/21 13:19:29;;;;;;;;;;;;;;;;;;5052825;28;20383;-69
2022/03/21 13:21:59;;;;;;;;;;;;;;;;;;5046749;28;19928;-69
2022/03/21 13:24:37;;;;;;;;;;;;;;;;;;5051078;28;19913;-69
2022/03/21 13:27:04;;;;;;;;;;;;;;;;;;5052918;28;20318;-69
2022/03/21 13:29:30;;;;;;;;;;;;;;;;;;5048053;28;19956;-69
2022/03/21 13:31:56;;;;;;;;;;;;;;;;;;5055989;28;20010;-70
2022/03/21 13:34:22;;;;;;;;;;;;;;;;;;5048811;28;19924;-69
2022/03/21 13:36:48;;;;;;;;;;;;;;;;;;5046625;28;19913;-69
2022/03/21 13:39:24;;;;;;;;;;;;;;;;;;5028207;28;19927;-70
2022/03/21 13:41:53;;;;;;;;;;;;;;;;;;5055170;28;19916;-70
2022/03/21 13:44:19;;;;;;;;;;;;;;;;;;5048058;28;20003;-69
2022/03/21 13:47:00;;;;;;;;;;;;;;;;;;5050391;28;20065;-69
2022/03/21 13:49:42;;;;;;;;;;;;;;;;;;5058597;28;20456;-69
2022/03/21 13:52:07;;;;;;;;;;;;;;;;;;5055981;28;20554;-69
2022/03/21 13:54:48;;;;;;;;;;;;;;;;;;5058369;28;19938;-69
2022/03/21 13:57:14;;;;;;;;;;;;;;;;;;5053224;28;20402;-70
2022/03/21 13:59:39;;;;;;;;;;;;;;;;;;5044266;28;19943;-69
2022/03/21 14:02:07;;;;;;;;;;;;;;;;;;5053306;28;19927;-70
2022/03/21 14:04:32;;;;;;;;;;;;;;;;;;5065714;28;19948;-69
2022/03/21 14:06:59;;;;;;;;;;;;;;;;;;5051647;28;19963;-69
2022/03/21 14:09:25;;;;;;;;;;;;;;;;;;5059617;28;19925;-70
2022/03/21 14:12:20;;;;;;;;;;;;;;;;;;5050181;28;19923;-69
2022/03/21 14:14:46;;;;;;;;;;;;;;;;;;5007262;28;19976;-70
2022/03/21 14:17:12;;;;;;;;;;;;;;;;;;5016213;28;19927;-69
2022/03/21 14:19:39;;;;;;;;;;;;;;;;;;5007481;28;19917;-70
2022/03/21 14:22:05;;;;;;;;;;;;;;;;;;5007109;28;19921;-68
2022/03/21 14:24:30;;;;;;;;;;;;;;;;;;5012464;28;20418;-69
2022/03/21 14:26:56;;;;;;;;;;;;;;;;;;5011120;28;19961;-69
2022/03/21 14:29:22;;;;;;;;;;;;;;;;;;5006811;28;20739;-70
2022/03/21 14:31:49;;;;;;;;;;;;;;;;;;4990283;28;19913;-69
2022/03/21 14:34:15;;;;;;;;;;;;;;;;;;5014562;28;19916;-69
2022/03/21 14:36:41;;;;;;;;;;;;;;;;;;5012922;28;20296;-69
2022/03/21 14:39:07;;;;;;;;;;;;;;;;;;5006664;28;19917;-69
2022/03/21 14:41:32;;;;;;;;;;;;;;;;;;5008740;28;19917;-69
2022/03/21 14:43:58;;;;;;;;;;;;;;;;;;5007640;28;20451;-69
2022/03/21 14:46:23;;;;;;;;;;;;;;;;;;5006120;28;20117;-69
2022/03/21 14:48:49;;;;;;;;;;;;;;;;;;5006558;28;20299;-69
2022/03/21 14:51:15;;;;;;;;;;;;;;;;;;5033021;28;20011;-69
2022/03/21 14:53:41;;;;;;;;;;;;;;;;;;5057359;28;19960;-69
2022/03/21 14:56:07;;;;;;;;;;;;;;;;;;5053890;28;19913;-69
2022/03/21 14:58:35;;;;;;;;;;;;;;;;;;5048416;28;20343;-69
2022/03/21 15:01:01;;;;;;;;;;;;;;;;;;5055126;28;20426;-69
2022/03/21 15:03:27;;;;;;;;;;;;;;;;;;5050829;28;20022;-69
2022/03/21 15:05:52;;;;;;;;;;;;;;;;;;5056155;28;19913;-69
2022/03/21 15:08:19;;;;;;;;;;;;;;;;;;5054045;28;19913;-69
2022/03/21 15:10:45;;;;;;;;;;;;;;;;;;5050260;28;19916;-69
2022/03/21 15:13:12;;;;;;;;;;;;;;;;;;5053327;28;19912;-69
2022/03/21 15:15:38;;;;;;;;;;;;;;;;;;5054774;28;19912;-69
2022/03/21 15:18:04;;;;;;;;;;;;;;;;;;5052180;28;19919;-69
2022/03/21 15:20:29;;;;;;;;;;;;;;;;;;5061586;28;19912;-68
2022/03/21 15:22:56;;;;;;;;;;;;;;;;;;5058732;28;19958;-69
2022/03/21 15:25:22;;;;;;;;;;;;;;;;;;5040810;28;19963;-68
2022/03/21 15:27:48;;;;;;;;;;;;;;;;;;5062705;28;19923;-67
2022/03/21 15:30:13;;;;;;;;;;;;;;;;;;5054261;28;19916;-67
2022/03/21 15:32:42;;;;;;;;;;;;;;;;;;5056184;28;19912;-68
2022/03/21 15:35:08;;;;;;;;;;;;;;;;;;5050210;28;19913;-68
2022/03/21 15:43:04;;;;;;;;;;;;;;;;;;5053691;28;19920;-68
2022/03/21 15:45:29;;;;;;;;;;;;;;;;;;5032572;28;19917;-68
2022/03/21 15:47:55;;;;;;;;;;;;;;;;;;5050819;28;19920;-69
2022/03/21 15:50:21;;;;;;;;;;;;;;;;;;5055598;28;19959;-68
2022/03/21 15:52:46;;;;;;;;;;;;;;;;;;5057111;28;19920;-68
2022/03/21 15:55:12;;;;;;;;;;;;;;;;;;5054841;28;20505;-68
2022/03/21 15:57:38;;;;;;;;;;;;;;;;;;5034990;28;19916;-68
2022/03/21 16:00:06;;;;;;;;;;;;;;;;;;5062534;28;19999;-68
2022/03/21 16:02:32;;;;;;;;;;;;;;;;;;5063942;28;20231;-67
2022/03/21 16:04:57;;;;;;;;;;;;;;;;;;5068671;28;20398;-68
2022/03/21 16:07:23;;;;;;;;;;;;;;;;;;5061718;28;19912;-68
2022/03/21 16:09:49;;;;;;;;;;;;;;;;;;5060758;28;19979;-68
2022/03/21 16:12:14;;;;;;;;;;;;;;;;;;5049792;28;20003;-68
2022/03/21 16:14:40;;;;;;;;;;;;;;;;;;5049555;28;20018;-69
2022/03/21 16:17:07;;;;;;;;;;;;;;;;;;5021899;28;19917;-69
2022/03/21 16:19:33;;;;;;;;;;;;;;;;;;5049957;28;20434;-70
2022/03/21 16:21:58;;;;;;;;;;;;;;;;;;5050646;28;19999;-70
2022/03/21 16:24:24;;;;;;;;;;;;;;;;;;5059156;28;19966;-67
2022/03/21 16:26:51;;;;;;;;;;;;;;;;;;5041099;28;19974;-67
2022/03/21 16:29:16;;;;;;;;;;;;;;;;;;5062290;28;20306;-67
2022/03/21 16:31:44;;;;;;;;;;;;;;;;;;5053358;28;19916;-69
2022/03/21 16:34:10;;;;;;;;;;;;;;;;;;5052886;28;19999;-68
2022/03/21 16:36:36;;;;;;;;;;;;;;;;;;5057397;28;20042;-69
2022/03/21 16:39:06;;;;;;;;;;;;;;;;;;5018598;28;20603;-69
2022/03/21 16:41:32;;;;;;;;;;;;;;;;;;5031396;28;20363;-69
2022/03/21 16:43:57;;;;;;;;;;;;;;;;;;5056770;28;19955;-68
2022/03/21 16:46:23;;;;;;;;;;;;;;;;;;5056304;28;19912;-67
2022/03/21 16:48:48;;;;;;;;;;;;;;;;;;5055981;28;19913;-68
2022/03/21 16:51:18;;;;;;;;;;;;;;;;;;5055173;28;20001;-68
2022/03/21 16:53:44;;;;;;;;;;;;;;;;;;5061552;28;20363;-68
2022/03/21 16:56:13;;;;;;;;;;;;;;;;;;5058503;28;19935;-69
2022/03/21 16:58:39;;;;;;;;;;;;;;;;;;5038689;28;20277;-69
2022/03/21 17:01:07;;;;;;;;;;;;;;;;;;5030925;28;19917;-68
2022/03/21 17:03:33;;;;;;;;;;;;;;;;;;5056822;28;19923;-69
2022/03/21 17:05:59;;;;;;;;;;;;;;;;;;5034377;28;19920;-70
2022/03/21 17:08:24;;;;;;;;;;;;;;;;;;5049515;28;19917;-69
2022/03/21 17:10:52;;;;;;;;;;;;;;;;;;5055612;28;20329;-68
2022/03/21 17:13:17;;;;;;;;;;;;;;;;;;5059264;28;19969;-67
2022/03/21 17:15:43;;;;;;;;;;;;;;;;;;5054363;28;19916;-68
2022/03/21 17:23:37;;;;;;;;;;;;;;;;;;5063478;28;19912;-69
2022/03/21 17:26:04;;;;;;;;;;;;;;;;;;5054922;28;19912;-68